Time;durP1;ratioP1;P1;durP2;ratioP2;P2;SDS_P1;SDS_P2;PMS_P1;PMS_P2;Temp;Humidity;BMP_temperature;BMP_pressure;BME280_temperature;BME280_humidity;BME280_pressure;Samples;Min_cycle;Max_cycle;Signal;HPM_P1;HPM_P2
2022/07/01 00:00:47;;;;;;;;;2.00;1.00;;;;;16.09;100.00;101220.00;5055653;28;45583;-79
2022/07/01 00:03:13;;;;;;;;;2.00;2.00;;;;;16.06;100.00;101222.19;5054137;28;45696;-79
2022/07/01 00:05:39;;;;;;;;;1.33;1.33;;;;;15.88;100.00;101200.06;5037430;28;45542;-80
2022/07/01 00:08:05;;;;;;;;;2.00;2.00;;;;;15.99;100.00;101215.88;5023370;28;46180;-80
2022/07/01 00:10:30;;;;;;;;;1.33;1.33;;;;;15.82;100.00;101199.09;5034034;28;46687;-80
2022/07/01 00:12:56;;;;;;;;;2.00;2.00;;;;;15.90;100.00;101217.28;5050963;28;45460;-80
2022/07/01 00:15:22;;;;;;;;;1.00;1.00;;;;;15.95;100.00;101224.88;5055936;28;45458;-79
2022/07/01 00:17:49;;;;;;;;;1.67;1.67;;;;;15.94;100.00;101237.84;5042875;28;45945;-80
2022/07/01 00:20:15;;;;;;;;;2.33;2.33;;;;;15.92;100.00;101231.72;5060935;28;45843;-81
2022/07/01 00:22:40;;;;;;;;;8.67;5.67;;;;;15.84;100.00;101232.06;5057110;28;45360;-80
2022/07/01 00:25:07;;;;;;;;;1.00;1.00;;;;;15.89;100.00;101240.47;5055756;28;45445;-78
2022/07/01 00:27:33;;;;;;;;;2.00;2.00;;;;;15.88;100.00;101252.63;5038511;28;46068;-80
2022/07/01 00:29:58;;;;;;;;;13.33;12.67;;;;;15.65;100.00;101220.13;5056318;28;46281;-80
2022/07/01 00:32:24;;;;;;;;;2.67;2.67;;;;;15.84;100.00;101257.78;5060107;28;45497;-80
2022/07/01 00:34:49;;;;;;;;;3.00;3.00;;;;;15.68;100.00;101228.78;5062333;28;45397;-79
2022/07/01 00:37:15;;;;;;;;;2.67;2.67;;;;;15.71;100.00;101244.91;5060895;28;45444;-78
2022/07/01 00:39:40;;;;;;;;;6.00;4.00;;;;;15.60;100.00;101222.72;5056234;28;45714;-78
2022/07/01 00:42:06;;;;;;;;;6.33;4.33;;;;;15.80;100.00;101258.47;5043593;28;45889;-79
2022/07/01 00:44:31;;;;;;;;;18.33;14.33;;;;;15.81;100.00;101265.72;5061268;28;45428;-78
2022/07/01 00:47:00;;;;;;;;;6.67;6.67;;;;;15.73;100.00;101255.75;5059934;28;45492;-79
2022/07/01 00:49:26;;;;;;;;;3.00;3.00;;;;;15.70;100.00;101245.16;5064115;28;46098;-77
2022/07/01 00:51:53;;;;;;;;;6.33;5.67;;;;;15.78;100.00;101274.44;5058750;28;45647;-80
2022/07/01 00:54:20;;;;;;;;;10.00;8.33;;;;;15.78;100.00;101274.44;5047437;28;45641;-78
2022/07/01 00:56:47;;;;;;;;;4.67;4.00;;;;;15.65;100.00;101259.66;5054101;28;45529;-79
2022/07/01 00:59:13;;;;;;;;;2.00;2.00;;;;;15.56;100.00;101240.88;5036730;28;47664;-79
2022/07/01 01:01:38;;;;;;;;;10.33;10.33;;;;;15.78;100.00;101277.19;5038786;28;45458;-79
2022/07/01 01:04:03;;;;;;;;;8.00;7.00;;;;;15.63;100.00;101247.13;5035114;28;45816;-77
2022/07/01 01:06:29;;;;;;;;;4.00;2.67;;;;;15.63;100.00;101260.97;5054886;28;45576;-82
2022/07/01 01:08:54;;;;;;;;;3.00;3.00;;;;;15.70;100.00;101275.56;5055958;28;45808;-78
2022/07/01 01:11:20;;;;;;;;;3.33;3.00;;;;;15.63;100.00;101281.19;5055827;28;45456;-79
2022/07/01 01:13:46;;;;;;;;;2.00;2.00;;;;;15.67;100.00;101290.72;5038100;28;45400;-78
2022/07/01 01:16:19;;;;;;;;;5.67;3.33;;;;;15.64;100.00;101285.66;5059329;28;45766;-79
2022/07/01 01:18:45;;;;;;;;;4.00;3.00;;;;;15.63;100.00;101294.13;5051813;28;45438;-76
2022/07/01 01:21:11;;;;;;;;;10.67;5.00;;;;;15.49;100.00;101268.56;5073337;28;45393;-78
2022/07/01 01:23:36;;;;;;;;;11.67;7.00;;;;;15.61;100.00;101288.84;5053544;28;45379;-78
2022/07/01 01:26:02;;;;;;;;;3.00;3.00;;;;;15.59;100.00;101293.75;5054542;28;45417;-76
2022/07/01 01:28:28;;;;;;;;;8.67;4.33;;;;;15.52;100.00;101280.03;5055430;28;45601;-78
2022/07/01 01:30:54;;;;;;;;;3.33;3.33;;;;;15.56;100.00;101297.00;5044905;28;45852;-77
2022/07/01 01:33:19;;;;;;;;;3.00;2.67;;;;;15.57;100.00;101301.44;5053027;28;45808;-77
2022/07/01 01:35:45;;;;;;;;;11.67;10.00;;;;;15.60;100.00;101311.19;5044527;28;45610;-79
2022/07/01 01:38:10;;;;;;;;;6.00;4.00;;;;;15.58;100.00;101307.81;5052398;28;45514;-80
2022/07/01 01:40:37;;;;;;;;;10.33;9.67;;;;;15.36;100.00;101284.22;5050911;28;45546;-77
2022/07/01 01:43:02;;;;;;;;;5.33;5.00;;;;;15.56;100.00;101313.56;5046165;28;45507;-79
2022/07/01 01:45:29;;;;;;;;;4.00;4.00;;;;;15.56;100.00;101316.34;5016418;28;45420;-79
2022/07/01 01:47:55;;;;;;;;;2.00;2.00;;;;;15.54;100.00;101313.81;5030014;28;47781;-79
2022/07/01 01:50:21;;;;;;;;;4.67;4.00;;;;;15.53;100.00;101320.41;5043989;28;45360;-81
2022/07/01 01:52:47;;;;;;;;;7.67;4.00;;;;;15.38;100.00;101300.56;5035645;28;45379;-79
2022/07/01 01:55:13;;;;;;;;;7.67;7.00;;;;;15.44;100.00;101316.25;5052482;28;45777;-80
2022/07/01 01:57:39;;;;;;;;;7.00;4.67;;;;;15.40;100.00;101316.94;5055085;28;45886;-79
2022/07/01 02:00:07;;;;;;;;;4.00;4.00;;;;;15.29;100.00;101305.53;5055841;28;45482;-79
2022/07/01 02:02:36;;;;;;;;;5.00;2.00;;;;;15.37;100.00;101318.22;5056954;28;45518;-79
2022/07/01 02:05:03;;;;;;;;;3.00;2.00;;;;;15.25;100.00;101303.47;5040825;28;45457;-81
2022/07/01 02:07:28;;;;;;;;;4.33;3.33;;;;;15.38;100.00;101325.44;5056192;28;45853;-81
2022/07/01 02:09:54;;;;;;;;;11.00;9.67;;;;;15.39;100.00;101320.75;5055907;28;46686;-79
2022/07/01 02:12:19;;;;;;;;;6.67;5.67;;;;;15.38;100.00;101333.75;5037437;28;45470;-80
2022/07/01 02:14:45;;;;;;;;;6.33;4.67;;;;;15.32;100.00;101327.19;5046972;28;46964;-81
2022/07/01 02:17:10;;;;;;;;;3.33;3.33;;;;;15.33;100.00;101325.28;5029333;28;47001;-79
2022/07/01 02:19:35;;;;;;;;;8.33;6.33;;;;;15.32;100.00;101320.84;5045913;28;45362;-79
2022/07/01 02:22:01;;;;;;;;;7.67;4.33;;;;;15.30;100.00;101326.59;5052550;28;45734;-79
2022/07/01 02:24:27;;;;;;;;;6.33;5.33;;;;;15.32;100.00;101338.25;5052504;28;45497;-80
2022/07/01 02:26:52;;;;;;;;;11.33;8.00;;;;;15.25;100.00;101329.16;5058626;28;45774;-81
2022/07/01 02:29:18;;;;;;;;;6.33;3.33;;;;;15.23;100.00;101323.03;5043711;28;45887;-79
2022/07/01 02:31:43;;;;;;;;;5.00;3.67;;;;;15.10;100.00;101312.91;5053000;28;45850;-81
2022/07/01 02:34:08;;;;;;;;;6.00;5.00;;;;;15.28;100.00;101341.69;5056682;28;45441;-80
2022/07/01 02:36:34;;;;;;;;;8.67;7.00;;;;;15.27;100.00;101351.91;5042542;28;48148;-79
2022/07/01 02:38:59;;;;;;;;;9.00;6.67;;;;;15.26;100.00;101355.72;5057609;28;45316;-80
2022/07/01 02:41:24;;;;;;;;;10.67;6.00;;;;;15.15;100.00;101334.38;5049986;28;45648;-79
2022/07/01 02:43:50;;;;;;;;;3.00;2.00;;;;;15.11;100.00;101327.59;5052418;28;45804;-78
2022/07/01 02:46:15;;;;;;;;;5.00;3.67;;;;;15.25;100.00;101355.97;5056584;28;45379;-80
2022/07/01 02:48:40;;;;;;;;;5.00;4.67;;;;;15.08;100.00;101337.19;5069979;28;45378;-78
2022/07/01 02:51:06;;;;;;;;;2.67;2.00;;;;;15.18;100.00;101351.34;5071022;28;45972;-77
2022/07/01 02:53:31;;;;;;;;;3.00;3.00;;;;;14.88;100.00;101306.97;5064290;28;45946;-81
2022/07/01 02:55:57;;;;;;;;;3.00;3.00;;;;;15.18;100.00;101350.50;5048766;28;46322;-79
2022/07/01 02:58:23;;;;;;;;;6.33;4.67;;;;;15.17;100.00;101357.94;5043678;28;45639;-78
2022/07/01 03:00:50;;;;;;;;;6.00;6.00;;;;;15.23;100.00;101367.25;5066626;28;45346;-81
2022/07/01 03:03:15;;;;;;;;;8.00;6.00;;;;;15.22;100.00;101368.31;5058939;28;45711;-82
2022/07/01 03:05:41;;;;;;;;;7.00;4.67;;;;;15.20;100.00;101364.94;5057359;28;46353;-80
2022/07/01 03:08:06;;;;;;;;;4.67;3.00;;;;;15.13;100.00;101348.38;5039105;28;45501;-80
2022/07/01 03:10:32;;;;;;;;;3.67;3.67;;;;;15.14;100.00;101349.25;5037949;28;45734;-79
2022/07/01 03:12:59;;;;;;;;;6.33;5.33;;;;;15.08;100.00;101352.91;5059492;28;45430;-82
2022/07/01 03:15:24;;;;;;;;;10.00;7.00;;;;;15.09;100.00;101360.97;5042156;28;46105;-81
2022/07/01 03:17:50;;;;;;;;;3.67;3.67;;;;;14.95;100.00;101343.63;5058927;28;45722;-81
2022/07/01 03:20:16;;;;;;;;;4.67;4.67;;;;;15.05;100.00;101362.50;5058104;28;45450;-80
2022/07/01 03:22:44;;;;;;;;;5.00;5.00;;;;;15.05;100.00;101361.66;5042410;28;46020;-82
2022/07/01 03:25:10;;;;;;;;;5.33;5.33;;;;;14.81;100.00;101331.00;5040446;28;47377;-80
2022/07/01 03:27:36;;;;;;;;;5.00;5.00;;;;;14.98;100.00;101362.56;5061786;28;45523;-81
2022/07/01 03:30:04;;;;;;;;;3.67;2.00;;;;;15.00;100.00;101379.72;5061943;28;45696;-80
2022/07/01 03:32:29;;;;;;;;;7.33;6.00;;;;;14.97;100.00;101371.03;5056393;28;45745;-81
2022/07/01 03:34:55;;;;;;;;;3.67;3.67;;;;;14.92;100.00;101363.41;5067416;28;45830;-80
2022/07/01 03:37:22;;;;;;;;;4.67;3.33;;;;;14.85;100.00;101365.41;5059938;28;45660;-82
2022/07/01 03:39:48;;;;;;;;;4.67;4.67;;;;;14.90;100.00;101373.00;5035673;28;45486;-80
2022/07/01 03:42:13;;;;;;;;;2.00;2.00;;;;;14.95;100.00;101392.50;5049048;28;45359;-79
2022/07/01 03:44:39;;;;;;;;;2.00;2.00;;;;;14.97;100.00;101390.38;5055694;28;45420;-80
2022/07/01 03:47:05;;;;;;;;;2.33;2.33;;;;;14.90;100.00;101382.13;5046675;28;45685;-80
2022/07/01 03:49:32;;;;;;;;;4.00;3.00;;;;;14.97;100.00;101395.88;5056527;28;45790;-80
2022/07/01 03:51:57;;;;;;;;;3.00;2.00;;;;;14.86;100.00;101374.53;5057180;28;45560;-83
2022/07/01 03:54:38;;;;;;;;;2.33;2.33;;;;;14.88;100.00;101384.28;5049025;28;47658;-80
2022/07/01 03:57:06;;;;;;;;;6.67;4.00;;;;;14.94;100.00;101397.19;5067057;28;45442;-79
2022/07/01 03:59:35;;;;;;;;;4.33;2.00;;;;;14.95;100.00;101393.34;5037422;28;45443;-80
2022/07/01 04:02:01;;;;;;;;;3.00;3.00;;;;;14.88;100.00;101387.03;5026278;28;46204;-80
2022/07/01 04:04:27;;;;;;;;;3.00;1.67;;;;;14.99;100.00;101394.59;5041207;28;47999;-81
2022/07/01 04:06:55;;;;;;;;;5.33;3.00;;;;;15.22;100.00;101398.69;5057871;28;45412;-80
2022/07/01 04:09:21;;;;;;;;;2.33;2.33;;;;;15.48;100.00;101402.34;5045848;28;45411;-82
2022/07/01 04:11:48;;;;;;;;;1.67;1.67;;;;;15.78;100.00;101398.88;5056351;28;45814;-81
2022/07/01 04:14:14;;;;;;;;;3.00;1.67;;;;;16.11;100.00;101383.88;5051870;28;46229;-81
2022/07/01 04:16:40;;;;;;;;;3.00;3.00;;;;;16.45;100.00;101378.78;5033147;28;45350;-80
2022/07/01 04:19:08;;;;;;;;;1.00;1.00;;;;;16.75;100.00;101379.66;5035364;28;45397;-80
2022/07/01 04:24:24;;;;;;;;;1.67;1.00;;;;;16.75;100.00;101329.81;5014214;28;46136;-81
2022/07/01 04:26:49;;;;;;;;;1.00;1.00;;;;;17.47;100.00;101370.47;5033839;28;45496;-82
2022/07/01 04:29:15;;;;;;;;;1.00;1.00;;;;;17.92;100.00;101370.97;5045580;28;45876;-80
2022/07/01 04:31:40;;;;;;;;;4.00;4.00;;;;;18.53;100.00;101372.28;5039766;28;45794;-80
2022/07/01 04:34:07;;;;;;;;;14.33;14.33;;;;;19.11;100.00;101379.78;5046431;28;45395;-82
2022/07/01 04:36:34;;;;;;;;;9.33;8.33;;;;;19.64;100.00;101355.34;5037228;28;45894;-81
2022/07/01 04:39:00;;;;;;;;;2.00;2.00;;;;;20.33;100.00;101362.44;5042548;28;46086;-79
2022/07/01 04:44:10;;;;;;;;;6.67;6.67;;;;;21.48;100.00;101327.91;5051901;28;45810;-83
2022/07/01 04:46:36;;;;;;;;;5.00;3.67;;;;;21.96;100.00;101306.47;5051822;28;45695;-80
2022/07/01 04:49:01;;;;;;;;;4.00;2.00;;;;;22.79;100.00;101343.13;5062459;28;45948;-82
2022/07/01 04:51:26;;;;;;;;;7.33;2.67;;;;;23.41;100.00;101350.47;5037110;28;46590;-82
2022/07/01 04:53:52;;;;;;;;;2.67;2.67;;;;;24.07;100.00;101345.03;5054561;28;45939;-80
2022/07/01 04:56:18;;;;;;;;;3.00;1.00;;;;;24.56;100.00;101329.41;5041476;28;45398;-81
2022/07/01 04:58:44;;;;;;;;;3.00;3.00;;;;;25.14;100.00;101339.97;5051579;28;45472;-82
2022/07/01 05:01:09;;;;;;;;;5.00;5.00;;;;;25.75;100.00;101349.84;5043348;28;45348;-77
2022/07/01 05:03:34;;;;;;;;;2.33;2.33;;;;;26.31;100.00;101355.97;5048551;28;45416;-77
2022/07/01 05:06:00;;;;;;;;;4.67;4.00;;;;;26.85;100.00;101365.94;5032174;28;45664;-77
2022/07/01 05:08:26;;;;;;;;;3.33;2.00;;;;;27.31;100.00;101351.13;5034294;28;45740;-77
2022/07/01 05:10:51;;;;;;;;;1.00;1.00;;;;;27.89;100.00;101368.72;5053674;28;45406;-79
2022/07/01 05:13:16;;;;;;;;;3.00;2.67;;;;;28.23;96.98;101339.28;5052842;28;46897;-80
2022/07/01 05:15:42;;;;;;;;;2.00;1.00;;;;;28.76;94.17;101340.72;5045512;28;45448;-81
2022/07/01 05:23:36;;;;;;;;;4.25;3.00;;;;;30.81;76.90;101365.41;5056954;28;46069;-81
2022/07/01 05:26:02;;;;;;;;;5.00;2.00;;;;;31.34;73.55;101362.59;5058834;28;44901;-82
2022/07/01 05:28:28;;;;;;;;;3.25;2.50;;;;;31.77;68.69;101363.66;5040816;28;45423;-81
2022/07/01 05:30:53;;;;;;;;;2.00;2.00;;;;;32.17;65.68;101360.53;5054859;28;45617;-80
2022/07/01 05:33:21;;;;;;;;;1.00;1.00;;;;;32.56;65.52;101353.63;5048700;28;47064;-81
2022/07/01 05:35:47;;;;;;;;;1.25;1.25;;;;;33.05;58.44;101338.88;5055461;28;45578;-82
2022/07/01 05:38:13;;;;;;;;;1.50;1.50;;;;;33.58;57.20;101347.75;5036731;28;46438;-81
2022/07/01 05:40:47;;;;;;;;;2.50;2.50;;;;;34.19;52.39;101345.34;5053848;28;45989;-80
2022/07/01 05:43:33;;;;;;;;;1.75;1.75;;;;;34.81;48.72;101360.38;5059928;28;47560;-81
2022/07/01 05:45:59;;;;;;;;;2.00;2.00;;;;;35.23;48.26;101359.13;5042648;28;45400;-80
2022/07/01 05:51:00;;;;;;;;;2.67;2.33;;;;;36.18;42.91;101361.31;5048139;28;45499;-70
2022/07/01 05:53:25;;;;;;;;;3.33;2.00;;;;;36.62;40.50;101368.91;5051635;28;45788;-71
2022/07/01 05:55:51;;;;;;;;;2.33;2.33;;;;;36.83;37.78;101366.56;5050219;28;45371;-71
2022/07/01 05:58:17;;;;;;;;;6.00;3.00;;;;;37.17;36.98;101368.91;5047030;28;45417;-72
2022/07/01 06:00:43;;;;;;;;;2.50;2.00;;;;;37.50;36.00;101361.81;5034241;28;45769;-71
2022/07/01 06:03:12;;;;;;;;;1.00;1.00;;;;;37.73;34.54;101371.28;5052051;28;45795;-70
2022/07/01 06:05:39;;;;;;;;;3.50;1.75;;;;;38.14;33.98;101362.97;5052146;28;45262;-71
2022/07/01 06:08:08;;;;;;;;;2.75;1.25;;;;;38.50;33.13;101366.44;5052627;28;45374;-75
2022/07/01 06:10:34;;;;;;;;;1.00;1.00;;;;;38.89;31.95;101373.16;5039949;28;45695;-72
2022/07/01 06:13:00;;;;;;;;;1.75;1.75;;;;;39.14;31.07;101362.84;5044127;28;45678;-72
2022/07/01 06:15:26;;;;;;;;;1.00;1.00;;;;;39.31;29.93;101369.19;5047400;28;45631;-73
2022/07/01 06:17:53;;;;;;;;;1.00;1.00;;;;;39.46;29.46;101373.84;5048595;28;45779;-74
2022/07/01 06:20:18;;;;;;;;;0.75;0.75;;;;;39.67;29.13;101379.00;5046668;28;45920;-75
2022/07/01 06:22:44;;;;;;;;;3.50;1.00;;;;;39.81;28.36;101380.38;5052455;28;45848;-73
2022/07/01 06:25:10;;;;;;;;;1.75;1.75;;;;;39.95;27.86;101373.97;5043225;28;45369;-72
2022/07/01 06:27:43;;;;;;;;;1.00;1.00;;;;;40.04;27.33;101378.16;5029196;28;45865;-75
2022/07/01 06:30:09;;;;;;;;;1.50;1.50;;;;;40.48;26.90;101376.44;5043560;28;45750;-71
2022/07/01 06:32:35;;;;;;;;;2.25;2.25;;;;;40.87;25.96;101380.78;5045372;28;46400;-72
2022/07/01 06:35:00;;;;;;;;;3.00;2.00;;;;;40.94;25.45;101375.09;5033085;28;46013;-72
2022/07/01 06:37:26;;;;;;;;;1.00;1.00;;;;;41.24;25.47;101385.50;5051954;28;45767;-77
2022/07/01 06:39:52;;;;;;;;;4.50;2.00;;;;;41.32;25.07;101383.47;5041915;28;45524;-71
2022/07/01 06:42:17;;;;;;;;;1.50;1.50;;;;;41.58;23.90;101391.78;5042075;28;46169;-72
2022/07/01 06:44:43;;;;;;;;;1.50;1.50;;;;;41.72;23.96;101384.41;5050755;28;45456;-75
2022/07/01 06:47:09;;;;;;;;;0.50;0.00;;;;;41.88;24.18;101393.50;5049691;28;45932;-71
2022/07/01 06:49:34;;;;;;;;;3.50;2.50;;;;;42.31;23.31;101381.97;5050127;28;45442;-71
2022/07/01 06:51:59;;;;;;;;;2.25;2.25;;;;;42.60;22.74;101384.03;5031550;28;45547;-70
2022/07/01 06:54:25;;;;;;;;;2.00;0.00;;;;;42.85;22.72;101381.06;5042522;28;45585;-71
2022/07/01 06:56:51;;;;;;;;;1.00;0.25;;;;;43.15;22.10;101389.19;5044736;28;45398;-72
2022/07/01 06:59:16;;;;;;;;;2.00;1.00;;;;;43.24;21.92;101380.09;5048948;28;45674;-71
2022/07/01 07:01:42;;;;;;;;;0.50;0.50;;;;;43.55;21.42;101388.97;5047722;28;46684;-71
2022/07/01 07:04:08;;;;;;;;;0.25;0.25;;;;;43.83;21.61;101387.19;5028079;28;45764;-74
2022/07/01 07:06:33;;;;;;;;;1.00;1.00;;;;;44.13;20.71;101391.47;5046317;28;45668;-70
2022/07/01 07:08:59;;;;;;;;;2.25;1.00;;;;;44.29;20.70;101393.81;5052867;28;45605;-71
2022/07/01 07:11:25;;;;;;;;;0.00;0.00;;;;;44.51;20.06;101377.06;5052815;28;45482;-74
2022/07/01 07:13:50;;;;;;;;;0.00;0.00;;;;;44.64;19.83;101389.75;5044127;28;45702;-71
2022/07/01 07:16:20;;;;;;;;;0.00;0.00;;;;;44.70;20.08;101387.22;5039421;28;46139;-72
2022/07/01 07:18:46;;;;;;;;;1.00;0.00;;;;;45.03;19.69;101385.56;5036986;28;45877;-73
2022/07/01 07:21:11;;;;;;;;;0.00;0.00;;;;;45.45;18.87;101388.34;5033607;28;46591;-72
2022/07/01 07:23:37;;;;;;;;;1.00;1.00;;;;;45.73;18.55;101389.97;5041237;28;45997;-72
2022/07/01 07:26:03;;;;;;;;;0.00;0.00;;;;;45.98;18.42;101388.78;5037002;28;45378;-72
2022/07/01 07:28:28;;;;;;;;;2.00;0.00;;;;;46.11;17.70;101386.06;5036543;28;45771;-71
2022/07/01 07:30:54;;;;;;;;;1.00;0.00;;;;;46.12;18.22;101376.91;5032818;28;45840;-72
2022/07/01 07:33:19;;;;;;;;;0.00;0.00;;;;;46.30;18.04;101376.59;5037873;28;45664;-71
2022/07/01 07:35:44;;;;;;;;;0.00;0.00;;;;;46.66;17.85;101378.84;5038064;28;45770;-72
2022/07/01 07:38:10;;;;;;;;;0.00;0.00;;;;;47.00;17.15;101374.03;5038432;28;45793;-72
2022/07/01 07:40:35;;;;;;;;;0.00;0.00;;;;;47.29;17.08;101371.28;5034403;28;47013;-71
2022/07/01 07:43:03;;;;;;;;;0.00;0.00;;;;;47.46;16.39;101374.25;5032834;28;45427;-71
2022/07/01 07:45:29;;;;;;;;;0.00;0.00;;;;;47.76;16.50;101370.22;5030822;28;45738;-71
2022/07/01 07:47:54;;;;;;;;;0.00;0.00;;;;;47.95;15.61;101373.47;5034936;28;45682;-71
2022/07/01 07:50:21;;;;;;;;;0.00;0.00;;;;;48.04;15.97;101370.72;5032682;28;48192;-71
2022/07/01 07:52:47;;;;;;;;;1.00;1.00;;;;;48.13;15.77;101370.94;5045645;28;45387;-73
2022/07/01 07:55:12;;;;;;;;;1.00;0.00;;;;;48.10;15.64;101371.03;5035552;28;45335;-71
2022/07/01 07:57:39;;;;;;;;;0.00;0.00;;;;;48.46;15.32;101375.91;5041922;28;45757;-72
2022/07/01 08:00:06;;;;;;;;;0.00;0.00;;;;;48.90;14.92;101377.13;5036578;28;47069;-74
2022/07/01 08:02:32;;;;;;;;;0.67;0.00;;;;;49.32;14.66;101363.78;5036998;28;45676;-73
2022/07/01 08:04:57;;;;;;;;;0.33;0.33;;;;;49.33;14.35;101374.16;5035981;28;46084;-71
2022/07/01 08:07:23;;;;;;;;;0.00;0.00;;;;;49.52;14.19;101372.31;5039483;28;45886;-70
2022/07/01 08:09:49;;;;;;;;;0.00;0.00;;;;;49.74;13.76;101381.19;5038555;28;45907;-72
2022/07/01 08:12:15;;;;;;;;;0.00;0.00;;;;;49.95;14.46;101383.38;5042779;28;45613;-72
2022/07/01 08:14:41;;;;;;;;;1.00;0.00;;;;;49.95;13.35;101382.56;5042178;28;45458;-71
2022/07/01 08:17:06;;;;;;;;;0.00;0.00;;;;;50.05;13.58;101377.63;5049245;28;45441;-73
2022/07/01 08:19:32;;;;;;;;;0.00;0.00;;;;;50.33;13.50;101388.31;5044271;28;46628;-75
2022/07/01 08:21:57;;;;;;;;;0.00;0.00;;;;;50.47;13.01;101386.16;5047376;28;45335;-76
2022/07/01 08:24:23;;;;;;;;;0.00;0.00;;;;;50.44;12.79;101387.94;5042729;28;45740;-74
2022/07/01 08:26:48;;;;;;;;;0.00;0.00;;;;;50.47;13.17;101391.97;5026278;28;48239;-75
2022/07/01 08:29:14;;;;;;;;;0.00;0.00;;;;;50.68;12.99;101390.38;5047215;28;45567;-74
2022/07/01 08:31:39;;;;;;;;;0.00;0.00;;;;;50.84;12.79;101386.44;5050229;28;45704;-74
2022/07/01 08:34:06;;;;;;;;;0.00;0.00;;;;;51.07;12.37;101388.09;5047793;28;45691;-74
2022/07/01 08:36:32;;;;;;;;;0.00;0.00;;;;;51.28;12.10;101392.25;5047578;28;46443;-75
2022/07/01 08:38:58;;;;;;;;;0.00;0.00;;;;;51.28;12.17;101386.41;5046728;28;46832;-73
2022/07/01 08:41:23;;;;;;;;;0.00;0.00;;;;;51.35;11.81;101386.13;5047402;28;45683;-74
2022/07/01 08:43:49;;;;;;;;;0.00;0.00;;;;;51.67;12.03;101389.88;5050415;28;45673;-73
2022/07/01 08:46:14;;;;;;;;;0.00;0.00;;;;;51.65;11.55;101392.44;5049159;28;45893;-74
2022/07/01 08:48:44;;;;;;;;;0.00;0.00;;;;;51.43;11.76;101388.75;5166581;22;46905;-72
2022/07/01 08:51:10;;;;;;;;;2.00;0.00;;;;;51.24;11.80;101397.44;5058659;28;45693;-72
2022/07/01 08:53:35;;;;;;;;;0.00;0.00;;;;;51.30;11.65;101398.47;5077104;27;45428;-71
2022/07/01 08:58:49;;;;;;;;;0.00;0.00;;;;;50.88;12.18;101398.81;5071708;27;45782;-72
2022/07/01 09:01:17;;;;;;;;;0.00;0.00;;;;;51.09;12.20;101405.97;5063133;27;45587;-73
2022/07/01 09:03:45;;;;;;;;;0.00;0.00;;;;;51.49;11.58;101395.59;5066958;28;45385;-72
2022/07/01 09:06:18;;;;;;;;;0.00;0.00;;;;;51.49;11.63;101402.28;5052344;28;45494;-73
2022/07/01 09:08:45;;;;;;;;;0.00;0.00;;;;;50.74;12.36;101403.13;5068181;27;46372;-72
2022/07/01 09:11:29;;;;;;;;;0.00;0.00;;;;;50.39;12.30;101402.31;5069393;27;45514;-73
2022/07/01 09:14:08;;;;;;;;;1.00;0.00;;;;;50.90;12.18;101407.09;5085506;27;45893;-71
2022/07/01 09:16:49;;;;;;;;;0.00;0.00;;;;;51.28;11.69;101406.88;5068619;27;45757;-75
2022/07/01 09:19:16;;;;;;;;;0.00;0.00;;;;;50.14;12.58;101398.97;5051836;27;47567;-74
2022/07/01 09:21:48;;;;;;;;;0.00;0.00;;;;;48.95;13.13;101410.69;5071187;27;45553;-75
2022/07/01 09:24:36;;;;;;;;;0.00;0.00;;;;;48.35;13.32;101408.19;5066478;27;45843;-75
2022/07/01 09:27:13;;;;;;;;;0.00;0.00;;;;;47.65;13.75;101410.31;5050943;28;46192;-75
2022/07/01 09:29:43;;;;;;;;;0.00;0.00;;;;;47.62;14.06;101411.25;5067246;27;46363;-73
2022/07/01 09:32:11;;;;;;;;;0.67;0.00;;;;;47.49;14.15;101414.84;5067281;27;45547;-74
2022/07/01 09:34:45;;;;;;;;;0.00;0.00;;;;;45.78;14.99;101415.56;5070057;28;45485;-75
2022/07/01 09:37:16;;;;;;;;;0.00;0.00;;;;;44.65;15.54;101413.75;5063562;27;45846;-72
2022/07/01 09:39:42;;;;;;;;;0.00;0.00;;;;;45.44;15.00;101413.59;5069911;27;45689;-72
2022/07/01 09:42:08;;;;;;;;;0.00;0.00;;;;;46.26;14.70;101415.66;5070810;27;45409;-74
2022/07/01 09:44:33;;;;;;;;;0.00;0.00;;;;;46.14;15.06;101420.81;5063794;28;45330;-74
2022/07/01 09:47:01;;;;;;;;;0.75;0.25;;;;;45.76;15.23;101418.06;5051517;28;47116;-74
2022/07/01 09:49:27;;;;;;;;;0.00;0.00;;;;;44.97;15.13;101418.31;5074034;27;46354;-73
2022/07/01 09:51:53;;;;;;;;;0.00;0.00;;;;;44.20;15.97;101414.53;5070955;27;45809;-72
2022/07/01 09:54:19;;;;;;;;;0.00;0.00;;;;;43.58;16.41;101402.56;5070324;27;45928;-73
2022/07/01 09:56:45;;;;;;;;;0.00;0.00;;;;;44.41;15.75;101413.53;5068822;27;45849;-75
2022/07/01 09:59:11;;;;;;;;;0.50;0.00;;;;;44.34;16.19;101405.75;5053556;27;46146;-74
2022/07/01 10:01:38;;;;;;;;;0.25;0.25;;;;;44.73;15.96;101404.53;5061238;28;45358;-75
2022/07/01 10:04:07;;;;;;;;;0.00;0.00;;;;;44.91;15.20;101406.38;5058555;28;45530;-73
2022/07/01 10:06:38;;;;;;;;;0.33;0.00;;;;;45.26;15.30;101401.41;5051958;28;45873;-73
2022/07/01 10:09:39;;;;;;;;;0.00;0.00;;;;;46.27;13.90;101415.19;5050406;28;45871;-73
2022/07/01 10:12:10;;;;;;;;;0.00;0.00;;;;;47.51;14.12;101415.22;4985597;28;45534;-73
2022/07/01 10:14:38;;;;;;;;;0.00;0.00;;;;;48.09;14.03;101410.94;5036934;28;45978;-73
2022/07/01 10:17:05;;;;;;;;;0.00;0.00;;;;;47.89;13.38;101414.72;5055005;28;45842;-75
2022/07/01 10:19:33;;;;;;;;;0.00;0.00;;;;;48.16;13.14;101409.94;5052909;28;45757;-73
2022/07/01 10:22:28;;;;;;;;;0.00;0.00;;;;;48.51;13.18;101411.09;5053820;28;46022;-75
2022/07/01 10:25:14;;;;;;;;;0.00;0.00;;;;;48.81;12.79;101414.84;5036897;28;45889;-73
2022/07/01 10:27:40;;;;;;;;;0.00;0.00;;;;;49.16;12.58;101396.75;5055146;28;46044;-74
2022/07/01 10:30:13;;;;;;;;;0.00;0.00;;;;;48.94;12.93;101403.22;5059300;28;46187;-74
2022/07/01 10:32:47;;;;;;;;;1.33;0.00;;;;;48.86;12.47;101399.69;5034892;28;46345;-73
2022/07/01 10:35:13;;;;;;;;;0.67;0.00;;;;;47.63;13.23;101401.25;5052697;28;45291;-74
2022/07/01 10:37:58;;;;;;;;;0.00;0.00;;;;;47.02;13.40;101401.34;5045643;28;45718;-73
2022/07/01 10:40:48;;;;;;;;;1.00;0.00;;;;;46.40;14.06;101409.59;5045614;27;45718;-73
2022/07/01 10:43:33;;;;;;;;;0.00;0.00;;;;;44.63;14.43;101405.50;5065103;27;45672;-75
2022/07/01 10:45:59;;;;;;;;;0.00;0.00;;;;;43.52;15.18;101395.59;5066455;27;45712;-75
2022/07/01 10:48:25;;;;;;;;;0.00;0.00;;;;;43.84;14.86;101412.75;5045099;28;46077;-74
2022/07/01 10:50:52;;;;;;;;;2.50;0.00;;;;;44.45;14.92;101404.81;5058734;28;45414;-76
2022/07/01 10:53:19;;;;;;;;;0.00;0.00;;;;;45.28;14.60;101410.50;5066036;27;45361;-72
2022/07/01 10:55:48;;;;;;;;;0.00;0.00;;;;;45.84;14.14;101407.22;5066396;28;45553;-75
2022/07/01 10:58:15;;;;;;;;;0.00;0.00;;;;;46.49;13.34;101401.13;5070690;27;46611;-74
2022/07/01 11:00:43;;;;;;;;;0.00;0.00;;;;;46.96;13.51;101405.22;5069724;27;45643;-73
2022/07/01 11:03:15;;;;;;;;;0.00;0.00;;;;;47.26;13.18;101400.44;5070364;28;45495;-73
2022/07/01 11:05:42;;;;;;;;;0.00;0.00;;;;;46.53;13.92;101409.75;5069771;27;45500;-73
2022/07/01 11:08:08;;;;;;;;;0.00;0.00;;;;;45.52;14.40;101413.50;5071578;28;45969;-73
2022/07/01 11:10:34;;;;;;;;;2.00;0.00;;;;;43.88;14.90;101410.66;5068664;28;45820;-73
2022/07/01 11:13:01;;;;;;;;;0.00;0.00;;;;;42.42;15.96;101407.09;5071187;27;45702;-72
2022/07/01 11:15:29;;;;;;;;;0.00;0.00;;;;;41.12;17.15;101409.69;5069074;28;45422;-73
2022/07/01 11:17:55;;;;;;;;;0.00;0.00;;;;;39.76;18.02;101410.28;5051552;28;45845;-73
2022/07/01 11:20:26;;;;;;;;;0.00;0.00;;;;;38.42;19.20;101406.84;5069740;27;46222;-72
2022/07/01 11:22:52;;;;;;;;;1.00;0.00;;;;;37.27;20.26;101406.34;5070436;27;45452;-72
2022/07/01 11:25:19;;;;;;;;;1.00;0.00;;;;;36.95;20.91;101407.66;5069042;28;46494;-74
2022/07/01 11:27:47;;;;;;;;;1.00;0.25;;;;;36.27;21.48;101399.13;5069356;27;45433;-72
2022/07/01 11:30:13;;;;;;;;;0.00;0.00;;;;;35.70;21.58;101401.25;5075402;27;45466;-72
2022/07/01 11:32:44;;;;;;;;;0.75;0.00;;;;;35.56;22.85;101404.53;5073647;27;45677;-75
2022/07/01 11:41:24;;;;;;;;;0.00;0.00;;;;;34.71;23.06;101392.19;5041301;27;45864;-74
2022/07/01 11:43:51;;;;;;;;;0.00;0.00;;;;;34.13;23.48;101413.06;5075707;27;45366;-72